Date,TemperatureHighF,TemperatureAvgF,TemperatureLowF,DewpointHighF,DewpointAvgF,DewpointLowF,HumidityHigh,HumidityAvg,HumidityLow,PressureMaxIn,PressureMinIn,WindSpeedMaxMPH,WindSpeedAvgMPH,GustSpeedMaxMPH,PrecipitationSumIn
2014-1-1,64.8,51.8,39.8,52.0,41.0,30.0,88,67,55,30.17,29.93,10,1,0,0.00
2014-1-2,54.5,44.7,36.0,50.0,26.9,19.0,88,52,25,30.40,30.03,7,0,0,0.00
2014-1-3,57.5,43.3,30.3,38.0,21.9,-99.9,85,52,22,30.39,30.05,6,-11,0,0.00
2014-1-4,70.9,56.0,42.1,55.0,46.9,38.0,89,73,51,30.04,29.73,19,1,0,0.00
2014-1-5,58.9,46.9,35.5,55.0,30.3,16.0,88,55,30,30.39,29.70,12,2,0,0.00
2014-1-6,37.0,29.1,23.8,17.0,2.3,-99.9,54,38,25,30.70,30.39,7,-41,0,0.00
2014-1-7,47.3,36.3,26.0,29.0,8.7,-99.9,61,36,20,30.57,30.26,8,-20,0,0.00
2014-1-8,58.1,46.8,40.5,57.0,43.9,30.0,96,90,59,30.26,30.04,2,0,0,0.12
2014-1-9,71.8,58.9,52.6,60.0,55.2,51.0,95,88,63,30.09,29.92,0,0,0,0.12
2014-1-10,72.3,66.1,60.7,63.0,60.1,55.0,94,82,65,29.91,29.67,11,2,0,0.04
2014-1-11,78.1,61.0,47.7,56.0,40.7,23.0,91,56,14,30.07,29.77,5,0,0,0.04
2014-1-12,65.5,56.8,42.9,58.0,48.3,37.0,83,73,57,30.03,29.82,11,0,0,0.00
2014-1-13,72.1,60.8,44.1,61.0,38.5,21.0,91,51,16,30.06,29.77,16,1,0,0.00
2014-1-14,75.8,54.9,38.3,33.0,29.1,21.0,79,45,13,30.25,29.92,14,2,0,0.00
2014-1-15,63.7,51.7,42.5,38.0,25.6,15.0,73,39,23,30.38,30.08,9,1,0,0.00
2014-1-16,76.0,56.4,39.6,41.0,29.8,24.0,65,39,18,30.11,29.98,11,1,0,0.00
2014-1-17,67.6,55.3,43.3,35.0,23.0,14.0,70,31,16,30.28,30.11,5,0,0,0.00
2014-1-18,70.4,52.6,37.8,46.0,36.2,22.0,79,57,31,30.17,30.01,8,1,0,0.00
2014-1-19,72.0,55.2,42.5,43.0,34.4,25.0,83,52,18,30.25,30.02,1,0,0,0.00
2014-1-20,82.2,64.1,44.3,51.0,37.6,25.0,71,41,21,30.07,29.76,13,2,0,0.00
2014-1-21,63.7,54.8,42.2,33.0,26.0,20.0,69,35,20,30.34,30.08,7,0,0,0.00
2014-1-22,71.1,53.1,38.8,39.0,29.4,24.0,80,46,19,30.14,29.92,6,0,0,0.00
2014-1-23,54.1,42.3,27.8,44.0,32.3,21.0,79,68,48,30.61,29.95,13,1,0,0.01
2014-1-24,40.1,32.3,26.1,24.0,17.5,9.0,80,56,40,30.67,30.30,7,0,0,0.05
2014-1-25,70.8,47.3,28.5,38.0,28.3,23.0,82,53,20,30.29,29.93,8,1,0,0.05
2014-1-26,74.4,59.1,43.2,47.0,40.0,35.0,83,52,29,29.92,29.60,9,1,0,0.00
2014-1-27,54.2,47.0,35.3,46.0,24.4,5.0,85,46,22,30.17,29.71,13,1,0,0.01
2014-1-28,39.2,32.0,27.8,20.0,6.9,-99.9,68,42,27,30.41,30.15,7,-42,0,0.02
2014-1-29,50.4,38.1,29.4,20.0,14.4,9.0,65,41,20,30.41,30.18,8,0,0,0.02
2014-1-30,65.8,46.4,31.3,51.0,29.9,-99.9,84,61,48,30.17,29.81,16,-40,0,0.00
2014-1-31,80.3,65.7,54.1,59.0,54.3,50.0,88,69,40,29.88,29.72,11,2,0,0.00
2014-2-1,76.1,69.0,56.0,62.0,59.1,42.0,81,71,58,29.82,29.67,11,0,0,0.00
2014-2-2,55.3,42.0,35.6,42.0,34.7,29.0,85,76,61,30.18,29.82,15,1,0,0.01
2014-2-3,47.0,39.8,34.7,38.0,33.1,29.0,85,77,65,30.18,29.89,6,0,0,0.01
2014-2-4,65.3,49.2,41.9,47.0,42.8,38.0,94,81,45,30.01,29.78,9,0,0,0.01
2014-2-5,47.7,40.6,31.5,43.0,26.8,17.0,86,59,40,30.39,30.02,9,1,0,0.01
2014-2-6,32.1,28.5,25.3,18.0,11.1,-99.9,66,55,51,30.48,30.32,16,-29,0,0.00
2014-2-7,37.5,32.5,26.7,31.0,24.1,17.0,87,72,60,30.33,30.18,12,1,0,0.00
2014-2-8,65.3,46.2,34.7,45.0,38.0,31.0,90,75,43,30.19,29.95,16,3,0,0.00
2014-2-9,72.7,55.1,41.5,56.0,47.4,40.0,95,78,47,30.04,29.85,11,2,0,0.00
2014-2-10,59.2,43.0,34.9,55.0,37.0,30.0,86,79,72,30.14,29.93,12,2,0,0.00
2014-2-11,36.8,35.0,33.6,32.0,29.7,28.0,87,81,71,30.21,30.11,21,1,0,0.04
2014-2-12,55.9,43.2,34.0,36.0,30.6,27.0,80,63,40,30.19,30.00,20,1,0,0.01
2014-2-13,68.8,54.5,34.6,42.0,35.3,30.0,85,52,29,30.01,29.84,12,2,0,0.00
2014-2-14,84.3,63.8,49.6,49.0,39.3,22.0,83,48,16,29.99,29.77,19,2,0,0.00
2014-2-15,75.4,59.4,42.5,51.0,35.5,22.0,74,45,23,30.09,29.93,8,1,0,0.00
2014-2-16,74.0,64.5,58.3,61.0,57.8,52.0,92,80,60,29.98,29.86,7,0,0,0.00
2014-2-17,81.4,69.6,57.5,63.0,50.3,30.0,88,58,18,30.04,29.84,23,2,0,0.00
2014-2-18,79.9,66.7,55.6,64.0,53.1,38.0,89,63,47,30.03,29.82,18,2,0,0.00
2014-2-19,84.1,69.0,61.6,63.0,60.6,59.0,94,76,43,29.85,29.64,23,2,0,0.00
2014-2-20,82.8,70.5,58.6,66.0,48.9,26.0,85,54,14,30.01,29.63,13,1,0,0.00
2014-2-21,71.5,58.1,43.9,34.0,28.5,23.0,67,35,20,30.12,29.93,6,0,0,0.00
2014-2-22,74.9,60.6,46.4,58.0,45.0,28.0,77,58,36,29.97,29.80,9,0,0,0.00
2014-2-23,82.4,70.2,61.6,62.0,56.7,45.0,88,65,38,29.98,29.80,16,3,0,0.00
2014-2-24,75.1,60.6,55.4,63.0,48.7,43.0,85,65,50,30.02,29.91,13,2,0,0.00
2014-2-25,69.9,62.0,51.7,67.0,58.7,48.0,97,89,80,29.96,29.86,21,2,0,0.03
2014-2-26,51.9,42.0,37.3,48.0,32.0,21.0,90,69,43,30.18,29.96,12,2,0,0.31
2014-2-27,58.1,45.0,34.1,34.0,29.3,23.0,84,58,33,30.14,29.85,15,1,0,0.00
2014-2-28,78.6,59.4,43.6,52.0,45.8,34.0,86,63,37,29.84,29.68,10,1,0,0.00
2014-3-1,80.9,65.3,51.0,67.0,58.4,48.0,96,79,53,29.93,29.78,22,4,0,0.00
2014-3-2,71.5,49.8,29.0,67.0,45.3,22.0,92,84,74,30.20,29.81,10,1,0,0.17
2014-3-3,47.1,33.5,24.2,29.0,20.9,14.0,86,62,38,30.34,30.18,14,1,0,0.10
2014-3-4,52.0,39.2,31.2,39.0,32.0,26.0,88,76,57,30.21,29.97,7,0,0,0.08
2014-3-5,55.1,46.4,39.6,45.0,40.0,34.0,88,79,62,30.08,29.89,10,2,0,0.00
2014-3-6,65.6,52.3,44.6,44.0,40.0,36.0,90,66,34,30.18,29.99,20,2,0,0.00
2014-3-7,66.4,55.4,42.2,50.0,42.8,38.0,87,65,44,30.01,29.80,7,0,0,0.00
2014-3-8,59.0,53.6,44.5,57.0,50.4,41.0,94,88,76,30.20,29.81,7,0,0,0.58
2014-3-9,58.4,48.3,41.2,45.0,39.4,33.0,87,72,57,30.27,30.12,6,0,0,0.02
2014-3-10,73.5,60.4,52.0,57.0,51.6,45.0,92,74,52,30.15,29.85,18,2,0,0.01
2014-3-11,84.1,67.7,56.4,57.0,54.6,50.0,94,66,37,29.85,29.50,15,2,0,0.00
2014-3-12,69.6,59.7,51.3,55.0,30.7,18.0,64,36,16,30.20,29.59,10,2,0,0.00
2014-3-13,72.1,56.5,41.8,41.0,30.0,22.0,72,40,19,30.27,30.03,18,3,0,0.00
2014-3-14,72.3,61.5,51.0,60.0,51.4,42.0,80,70,50,30.03,29.87,22,4,0,0.00
2014-3-15,75.1,66.7,62.3,66.0,61.8,59.0,98,85,63,29.92,29.61,11,2,0,0.10
2014-3-16,67.4,58.7,49.8,59.0,45.1,33.0,90,62,40,29.98,29.61,11,1,0,0.00
2014-3-17,71.8,55.6,44.9,35.0,27.6,21.0,55,37,16,29.97,29.69,21,3,0,0.00
2014-3-18,84.9,63.5,45.2,59.0,43.4,33.0,79,51,23,29.73,29.59,21,6,0,0.00
2014-3-19,76.7,64.1,55.6,58.0,37.5,27.0,82,41,23,30.11,29.74,18,2,0,0.00
2014-3-20,82.2,62.9,46.8,43.0,38.6,33.0,79,47,20,30.16,29.93,10,0,0,0.00
2014-3-21,80.7,67.0,54.5,60.0,53.5,42.0,90,64,44,29.94,29.75,14,1,0,0.00
2014-3-22,78.6,69.7,62.9,67.0,63.2,55.0,96,80,61,29.95,29.80,18,3,0,0.00
2014-3-23,63.1,55.6,46.7,53.0,43.8,36.0,77,65,50,30.17,29.95,27,4,0,0.00
2014-3-24,70.8,58.4,51.1,50.0,43.2,39.0,77,58,40,30.16,29.93,2,0,0,0.00
2014-3-25,73.9,59.0,47.6,49.0,40.3,34.0,89,55,23,30.26,30.05,14,1,0,0.00
2014-3-26,67.6,60.3,55.1,57.0,47.3,34.0,86,63,44,30.12,29.87,21,2,0,0.00
2014-3-27,83.0,70.3,61.2,69.0,63.0,57.0,92,79,53,29.87,29.64,26,4,0,0.00
2014-3-28,88.4,75.6,69.3,67.0,61.4,50.0,88,64,29,29.92,29.61,6,0,0,0.00
2014-3-29,80.5,66.5,54.4,50.0,41.1,29.0,65,44,16,30.19,29.92,6,0,0,0.00
2014-3-30,76.0,63.0,48.3,55.0,46.1,36.0,80,57,27,30.14,29.94,30,8,0,0.00
2014-3-31,86.3,70.7,59.4,63.0,57.7,54.0,90,67,37,29.96,29.75,22,5,0,0.00
2014-4-1,88.0,75.7,66.9,69.0,64.6,62.0,92,71,43,29.89,29.74,25,3,0,0.00
2014-4-2,85.3,76.8,71.2,69.0,67.1,63.0,89,73,53,29.79,29.60,24,5,0,0.00
2014-4-3,85.9,76.9,70.6,69.0,67.3,65.0,84,73,55,29.71,29.57,24,1,0,0.00
2014-4-4,75.4,66.1,55.7,69.0,36.1,26.0,85,35,20,30.06,29.71,11,1,0,0.00
2014-4-5,66.9,60.7,55.4,49.0,39.5,35.0,64,46,36,29.99,29.78,2,0,0,0.00
2014-4-6,62.0,56.0,52.8,52.0,49.5,46.0,92,80,57,29.80,29.65,6,0,0,0.23
2014-4-7,77.6,59.7,53.6,57.0,49.8,48.0,94,73,39,29.96,29.73,7,0,0,0.41
2014-4-8,79.2,64.3,54.1,52.0,41.1,29.0,87,50,19,30.12,29.95,27,2,0,0.00
2014-4-9,87.0,68.1,48.3,51.0,42.7,36.0,84,44,21,30.18,29.97,12,1,0,0.00
2014-4-10,88.2,71.3,58.6,60.0,53.2,47.0,85,57,26,30.04,29.82,13,2,0,0.00
2014-4-11,88.4,72.6,61.6,61.0,58.6,54.0,87,64,34,29.95,29.81,20,1,0,0.00
2014-4-12,85.3,73.7,66.1,65.0,62.4,60.0,90,69,45,29.90,29.72,33,6,0,0.00
2014-4-13,81.4,73.7,67.8,70.0,66.0,62.0,88,77,60,29.76,29.54,25,4,0,0.00
2014-4-14,74.6,60.9,46.4,70.0,47.9,32.0,92,65,36,30.17,29.58,10,1,0,0.45
2014-4-15,69.9,54.9,44.5,36.0,27.2,16.0,61,38,18,30.28,30.06,2,0,0,0.00
2014-4-16,76.0,58.9,42.1,49.0,40.1,32.0,79,52,30,30.07,29.85,18,1,0,0.00
2014-4-17,70.6,62.1,56.2,60.0,55.8,49.0,93,80,64,30.08,29.90,15,1,0,0.06
2014-4-18,84.0,69.1,59.5,61.0,57.2,52.0,94,70,35,30.13,30.00,5,0,0,0.01
2014-4-19,82.8,68.4,55.7,58.0,55.1,52.0,90,65,36,30.09,29.96,20,2,0,0.00
2014-4-20,78.1,69.5,62.3,62.0,59.0,55.0,94,71,52,30.05,29.92,14,1,0,0.00
2014-4-21,86.7,74.1,65.3,65.0,63.0,57.0,90,70,46,29.97,29.82,13,2,0,0.00
2014-4-22,91.0,77.8,66.0,69.0,59.7,52.0,82,56,30,29.94,29.81,14,2,0,0.00
2014-4-23,89.5,75.7,62.0,67.0,61.7,58.0,85,64,39,29.85,29.66,14,1,0,0.00
2014-4-24,93.4,77.2,67.3,68.0,62.6,47.0,85,63,31,29.82,29.68,10,2,0,0.00
2014-4-25,95.1,77.5,61.3,67.0,58.3,48.0,77,54,27,29.93,29.76,27,2,0,0.00
2014-4-26,87.8,75.5,68.7,69.0,66.1,63.0,90,74,48,29.82,29.56,14,2,0,0.00
2014-4-27,94.3,81.1,74.4,72.0,68.6,52.0,83,68,25,29.58,29.36,23,5,0,0.00
2014-4-28,90.1,81.7,72.1,72.0,40.3,26.0,82,26,11,29.63,29.44,27,5,0,0.00
2014-4-29,85.5,75.0,64.0,53.0,38.3,25.0,65,30,13,29.87,29.52,30,2,0,0.00
2014-4-30,77.6,66.4,58.9,40.0,35.3,31.0,42,32,21,30.08,29.88,33,6,0,0.00
2014-5-1,83.8,66.8,54.5,46.0,36.6,25.0,68,38,14,30.10,29.93,15,2,0,0.00
2014-5-2,83.0,69.1,57.3,48.0,39.1,28.0,66,37,15,30.00,29.85,14,2,0,0.00
2014-5-3,93.2,77.7,63.2,44.0,37.1,30.0,49,25,11,29.97,29.88,10,0,0,0.00
2014-5-4,89.5,76.6,61.2,45.0,39.0,33.0,46,27,17,30.02,29.87,21,5,0,0.00
2014-5-5,93.2,75.0,61.6,62.0,57.4,42.0,87,57,28,29.93,29.72,25,7,0,0.00
2014-5-6,88.0,74.8,67.1,66.0,62.3,58.0,80,66,43,29.79,29.65,29,2,0,0.00
2014-5-7,90.1,77.6,71.6,69.0,65.4,62.0,83,67,41,29.78,29.68,32,6,0,0.00
2014-5-8,85.7,78.7,74.9,73.0,70.1,67.0,84,75,59,29.76,29.66,22,1,0,0.06
2014-5-9,86.3,77.6,68.4,71.0,66.1,57.0,84,69,41,29.86,29.65,13,1,0,0.01
2014-5-10,92.9,76.8,62.0,69.0,63.1,59.0,90,65,39,29.84,29.68,10,0,0,0.00
2014-5-11,93.8,81.1,73.2,69.0,67.1,65.0,82,65,39,29.76,29.60,7,0,0,0.00
2014-5-12,84.9,78.4,64.8,76.0,71.2,63.0,92,79,67,29.86,29.67,20,2,0,2.25
2014-5-13,69.3,61.8,57.0,62.0,54.6,49.0,94,79,51,30.16,29.82,23,0,0,0.96
2014-5-14,76.5,64.0,53.2,53.0,44.8,33.0,89,57,21,30.20,30.09,9,0,0,0.09
2014-5-15,85.9,67.5,50.8,48.0,43.5,34.0,86,48,16,30.22,30.03,22,2,0,0.00
2014-5-16,86.7,74.3,63.1,51.0,43.7,37.0,64,37,18,30.06,29.88,23,7,0,0.00
2014-5-17,88.0,72.9,61.2,59.0,55.2,48.0,82,57,29,29.93,29.83,27,7,0,0.00
2014-5-18,87.4,72.8,62.0,63.0,59.8,56.0,92,66,36,30.00,29.89,32,9,0,0.00
2014-5-19,88.4,76.2,67.4,65.0,61.2,57.0,90,63,37,29.98,29.87,27,2,0,0.00
2014-5-20,90.7,77.2,69.1,67.0,63.4,59.0,87,65,36,29.98,29.90,25,6,0,0.00
2014-5-21,92.7,80.0,70.7,70.0,64.4,60.0,86,62,34,30.00,29.89,24,5,0,0.00
2014-5-22,92.3,79.0,69.6,70.0,65.9,60.0,92,66,42,30.01,29.91,18,2,0,0.00
2014-5-23,84.5,75.5,70.8,72.0,67.3,59.0,95,76,51,29.99,29.88,23,2,0,0.10
2014-5-24,88.2,77.8,70.5,71.0,68.8,66.0,93,75,55,29.96,29.80,20,4,0,0.00
2014-5-25,90.3,78.8,72.2,72.0,67.7,65.0,88,70,43,29.95,29.80,27,10,0,0.00
2014-5-26,77.7,71.4,65.2,69.0,66.3,63.0,95,84,68,29.98,29.81,19,2,0,1.20
2014-5-27,74.2,68.5,64.2,69.0,65.8,62.0,95,91,79,29.92,29.78,12,1,0,1.20
2014-5-28,83.6,75.3,68.7,70.0,66.3,62.0,97,75,50,29.86,29.77,10,2,0,0.06
2014-5-29,91.8,79.4,67.3,69.0,64.7,61.0,90,63,38,29.82,29.73,10,1,0,0.00
2014-5-30,95.9,81.6,69.4,70.0,66.0,61.0,88,62,33,29.78,29.72,11,2,0,0.00
2014-5-31,94.7,83.2,72.3,71.0,68.5,63.0,87,63,39,29.81,29.75,8,0,0,0.00
2014-6-1,95.9,82.9,71.2,71.0,69.1,64.0,94,65,35,29.86,29.77,27,1,0,0.00
2014-6-2,95.9,83.6,73.6,73.0,70.0,67.0,92,66,40,29.89,29.80,16,3,0,0.00
2014-6-3,94.5,82.8,74.0,76.0,71.4,64.0,93,70,44,29.91,29.81,19,5,0,0.00
2014-6-4,92.9,82.1,74.2,74.0,70.3,68.0,91,69,44,29.83,29.72,22,4,0,0.00
2014-6-5,92.7,83.0,75.5,72.0,70.3,68.0,87,67,48,29.79,29.71,8,1,0,0.00
2014-6-6,94.7,83.2,75.3,72.0,69.9,69.0,85,66,43,29.86,29.74,8,0,0,0.00
2014-6-7,93.8,83.5,75.6,73.0,69.6,67.0,89,65,44,29.87,29.73,10,1,0,0.00
2014-6-8,90.7,82.6,76.1,74.0,70.6,66.0,89,68,52,29.88,29.68,25,5,0,0.00
2014-6-9,90.3,80.2,72.1,74.0,71.9,67.0,90,76,57,29.81,29.66,4,0,0,0.11
2014-6-10,93.6,79.7,67.4,73.0,61.5,54.0,92,59,27,29.82,29.71,11,2,0,0.01
2014-6-11,96.1,82.6,68.9,74.0,66.9,62.0,87,62,35,29.80,29.67,16,2,0,0.00
2014-6-12,97.8,84.1,66.4,77.0,72.5,65.0,96,69,45,29.98,29.61,19,2,0,1.76
2014-6-13,95.4,81.2,67.1,72.0,68.2,65.0,96,67,44,29.90,29.73,12,0,0,0.02
2014-6-14,86.0,81.3,75.7,74.0,72.6,69.0,92,75,59,29.86,29.72,25,9,0,0.00
2014-6-15,94.5,83.2,76.5,74.0,71.4,67.0,89,69,43,29.85,29.74,24,8,0,0.00
2014-6-16,94.7,84.0,77.9,75.0,72.0,67.0,85,69,40,29.92,29.82,29,6,0,0.00
2014-6-17,95.1,84.8,77.9,75.0,70.8,65.0,88,65,38,29.92,29.81,29,4,0,0.00
2014-6-18,95.4,83.8,77.5,75.0,71.1,66.0,89,68,38,29.91,29.80,21,3,0,0.12
2014-6-19,94.9,84.1,78.3,73.0,70.0,66.0,81,64,41,29.95,29.86,15,2,0,0.00
2014-6-20,96.8,83.2,75.8,74.0,70.6,66.0,88,68,37,29.99,29.88,21,4,0,0.00
2014-6-21,94.3,83.6,75.4,75.0,71.1,65.0,91,68,40,29.94,29.80,18,3,0,0.00
2014-6-22,87.9,82.1,77.9,74.0,72.0,70.0,87,72,56,29.85,29.74,21,8,0,0.00
2014-6-23,92.9,81.3,68.5,76.0,72.4,67.0,96,75,54,29.92,29.75,24,2,0,0.29
2014-6-24,94.9,83.0,75.2,74.0,71.2,67.0,91,69,41,29.94,29.86,18,2,0,0.00
2014-6-25,93.4,79.4,72.8,75.0,72.7,69.0,94,81,50,29.95,29.84,23,4,0,0.27
2014-6-26,89.7,79.1,71.5,74.0,70.3,69.0,94,76,53,29.92,29.77,15,1,0,0.00
2014-6-27,91.6,82.2,74.2,73.0,71.3,69.0,90,70,47,29.82,29.72,15,1,0,0.02
2014-6-28,93.8,84.6,78.8,76.0,72.3,69.0,88,68,46,29.86,29.75,25,2,0,0.00
2014-6-29,95.4,85.8,78.6,74.0,72.0,69.0,82,65,44,29.93,29.85,8,1,0,0.00
2014-6-30,96.3,85.0,78.6,75.0,70.5,62.0,81,64,35,29.92,29.80,28,2,0,0.00
2014-7-1,98.0,85.3,77.4,73.0,69.6,61.0,84,62,33,29.89,29.79,27,2,0,0.00
2014-7-2,100.2,86.5,75.4,73.0,68.5,60.0,92,59,27,29.95,29.88,11,1,0,0.00
2014-7-3,102.0,84.4,73.7,71.0,68.6,60.0,89,63,26,30.04,29.95,10,0,0,0.29
2014-7-4,97.1,81.6,73.3,73.0,68.5,62.0,86,67,32,30.11,30.03,5,0,0,0.00
2014-7-5,96.3,81.5,72.3,72.0,69.1,65.0,88,68,39,30.10,29.99,18,2,0,0.00
2014-7-6,95.6,83.3,73.5,73.0,69.4,65.0,95,66,39,29.99,29.86,6,1,0,0.00
2014-7-7,98.0,85.6,75.3,71.0,66.5,60.0,84,56,29,29.94,29.86,14,2,0,0.00
2014-7-8,98.0,86.2,77.0,72.0,67.4,60.0,83,57,30,29.96,29.87,7,0,0,0.00
2014-7-9,98.7,85.9,76.4,71.0,65.1,53.0,79,54,23,29.98,29.86,21,2,0,0.00
2014-7-10,95.6,83.8,75.3,71.0,67.1,61.0,84,60,33,30.00,29.88,0,0,0,0.00
2014-7-11,95.4,82.6,72.1,74.0,65.5,56.0,88,60,27,30.04,29.95,16,2,0,0.00
2014-7-12,98.7,86.0,75.4,71.0,65.0,55.0,84,54,24,30.08,29.94,9,0,0,0.00
2014-7-13,99.0,87.0,77.0,73.0,68.5,61.0,83,57,29,30.01,29.89,16,5,0,0.00
2014-7-14,101.2,86.9,76.0,85.0,68.1,60.0,100,57,28,29.96,29.81,12,3,0,8.74
2014-7-15,94.7,83.7,74.4,73.0,70.0,67.0,92,65,44,29.93,29.83,9,0,0,0.28
2014-7-16,97.5,82.9,75.4,75.0,71.1,66.0,91,70,37,29.91,29.75,8,1,0,0.09
2014-7-17,92.9,82.8,77.2,77.0,73.0,69.0,92,73,52,29.81,29.67,19,2,0,0.50
2014-7-18,78.1,75.7,72.9,74.0,70.6,67.0,94,84,73,29.91,29.77,12,1,0,0.77
2014-7-19,89.7,79.3,71.1,71.0,68.8,66.0,84,71,53,29.93,29.83,0,0,0,0.00
2014-7-20,99.4,85.1,75.1,75.0,72.6,70.0,85,68,43,29.92,29.80,0,0,0,0.00
2014-7-21,101.0,88.8,78.5,76.0,72.8,69.0,87,62,38,29.94,29.83,0,0,0,0.00
2014-7-22,100.4,87.9,78.5,73.0,70.7,66.0,84,59,33,29.96,29.88,1,0,0,0.00
2014-7-23,101.2,88.3,78.6,77.0,71.1,62.0,84,59,29,29.98,29.86,6,0,0,0.00
2014-7-24,99.2,86.3,74.9,77.0,71.0,66.0,92,63,38,29.96,29.84,10,1,0,0.12
2014-7-25,100.4,87.0,77.5,74.0,70.2,64.0,82,60,31,29.95,29.82,18,4,0,0.00
2014-7-26,98.7,87.5,78.3,74.0,70.6,61.0,85,60,32,29.95,29.81,29,7,0,0.00
2014-7-27,101.7,87.9,77.2,74.0,69.3,62.0,85,58,28,29.97,29.87,20,1,0,0.00
2014-7-28,103.8,89.2,77.4,71.0,67.8,60.0,81,53,26,30.03,29.91,0,0,0,0.00
2014-7-29,102.8,86.9,78.5,74.0,69.9,63.0,79,59,28,30.01,29.92,22,2,0,0.00
2014-7-30,100.7,87.1,77.8,72.0,66.6,59.0,79,54,27,29.95,29.78,27,5,0,0.00
2014-7-31,93.9,85.2,79.4,75.0,71.0,63.0,78,63,46,29.91,29.79,21,4,0,0.00
2014-8-1,92.5,82.3,75.8,68.0,64.9,63.0,69,57,38,29.93,29.86,16,1,0,0.00
2014-8-2,91.8,80.0,72.0,67.0,65.8,63.0,82,63,39,29.98,29.89,18,1,0,0.00
2014-8-3,97.1,83.2,73.5,69.0,66.6,63.0,80,60,33,29.96,29.86,16,0,0,0.00
2014-8-4,97.8,86.1,77.4,71.0,68.6,65.0,76,58,38,29.94,29.85,0,0,0,0.00
2014-8-5,103.1,87.6,75.6,71.0,67.3,62.0,78,54,27,29.98,29.86,0,0,0,0.00
2014-8-6,102.3,88.2,77.7,73.0,66.8,58.0,80,53,26,29.94,29.80,0,0,0,0.00
2014-8-7,105.7,89.9,79.2,74.0,68.7,60.0,83,54,23,29.87,29.72,0,0,0,0.00
2014-8-8,103.3,90.0,79.0,74.0,68.6,60.0,84,54,25,29.88,29.76,4,0,0,0.00
2014-8-9,102.8,89.9,79.6,73.0,67.2,60.0,80,51,25,29.93,29.79,9,0,0,0.00
2014-8-10,104.9,90.3,80.1,74.0,68.9,61.0,81,53,24,29.95,29.81,0,0,0,0.00
2014-8-11,103.6,86.9,80.9,73.0,70.5,63.0,77,60,28,29.96,29.87,1,0,0,0.00
2014-8-12,102.5,92.1,78.1,73.0,64.7,53.0,79,43,27,29.97,29.84,1,0,0,0.01
2014-8-13,100.4,85.8,74.2,62.0,57.5,50.0,64,41,23,29.98,29.88,0,0,0,0.00
2014-8-14,102.3,93.9,76.8,69.0,61.2,56.0,57,35,23,29.95,29.82,0,0,0,0.00
2014-8-15,102.5,89.5,77.7,74.0,66.5,58.0,82,50,24,29.92,29.75,5,0,0,0.00
2014-8-16,103.8,89.7,78.6,74.0,68.6,59.0,84,54,24,29.88,29.75,0,0,0,0.00
2014-8-17,101.7,88.2,80.3,74.0,69.0,58.0,80,57,24,29.90,29.78,0,0,0,0.00
2014-8-18,101.5,88.7,79.4,74.0,69.4,60.0,82,56,27,29.87,29.72,6,0,0,0.04
2014-8-19,96.6,87.1,79.0,72.0,67.2,60.0,73,54,30,29.86,29.72,6,1,0,0.00
2014-8-20,102.8,88.8,79.2,75.0,69.1,61.0,86,56,27,29.90,29.77,1,0,0,0.00
2014-8-21,102.0,89.5,81.8,75.0,68.6,59.0,78,54,24,29.95,29.85,10,1,0,0.00
2014-8-22,103.8,90.2,81.2,74.0,67.2,58.0,78,51,22,29.98,29.85,6,0,0,0.00
2014-8-23,102.0,88.3,77.2,73.0,68.1,59.0,84,55,27,29.94,29.78,0,0,0,0.00
2014-8-24,102.3,88.5,78.8,74.0,68.1,59.0,84,55,27,29.88,29.75,0,0,0,0.00
2014-8-25,105.4,90.4,79.6,73.0,66.9,60.0,79,50,23,29.87,29.75,0,0,0,0.00
2014-8-26,105.1,89.9,80.1,70.0,67.0,62.0,68,48,26,29.92,29.81,0,0,0,0.00
2014-8-27,101.7,88.4,79.2,73.0,65.8,54.0,80,51,23,29.92,29.80,0,0,0,0.00
2014-8-28,101.0,85.2,77.2,79.0,70.3,66.0,83,63,33,29.86,29.72,5,0,0,0.27
2014-8-29,100.2,83.9,77.7,75.0,71.6,68.0,85,69,35,29.82,29.68,5,0,0,0.04
2014-8-30,97.5,84.7,76.0,73.0,70.7,65.0,88,66,35,29.87,29.75,0,0,0,0.00
2014-8-31,97.1,84.8,75.8,73.0,71.2,67.0,88,66,40,29.89,29.78,0,0,0,0.00
2014-9-1,98.7,86.8,78.5,75.0,71.0,63.0,88,63,32,29.85,29.73,0,0,0,0.00
2014-9-2,99.4,86.7,78.6,75.0,71.7,67.0,87,63,36,29.85,29.76,0,0,0,0.00
2014-9-3,99.4,86.0,77.0,74.0,68.9,60.0,85,60,28,29.89,29.80,2,0,0,0.00
2014-9-4,95.1,83.5,78.8,77.0,72.2,67.0,87,70,40,29.93,29.85,2,0,0,0.16
2014-9-5,99.7,83.7,76.8,75.0,71.5,62.0,90,70,31,29.97,29.81,2,0,0,0.35
2014-9-6,99.7,85.1,75.6,74.0,70.6,65.0,92,65,33,29.97,29.81,0,0,0,0.00
2014-9-7,89.3,80.1,73.9,74.0,71.7,68.0,95,77,52,29.97,29.85,2,0,0,0.62
2014-9-8,98.0,83.8,73.7,71.0,68.7,66.0,89,64,36,29.94,29.81,0,0,0,0.00
2014-9-9,97.1,86.0,77.4,72.0,69.1,64.0,83,59,35,29.89,29.72,5,0,0,0.00
2014-9-10,99.7,87.4,79.0,73.0,69.5,64.0,82,58,33,29.78,29.67,6,1,0,0.00
2014-9-11,102.5,88.0,79.0,74.0,70.3,62.0,83,59,27,29.85,29.73,3,0,0,0.00
2014-9-12,98.5,81.6,68.8,75.0,70.1,62.0,92,70,36,30.03,29.81,2,0,0,0.44
2014-9-13,68.6,63.9,61.5,63.0,59.9,57.0,91,86,78,30.14,30.02,2,0,0,0.14
2014-9-14,80.7,70.3,65.5,67.0,64.0,61.0,88,81,62,30.14,30.00,0,0,0,0.00
2014-9-15,92.5,79.2,70.8,71.0,68.5,67.0,89,71,45,30.04,29.93,0,0,0,0.00
2014-9-16,99.2,83.0,75.8,74.0,71.9,68.0,92,72,37,29.99,29.82,2,0,0,0.03
2014-9-17,94.3,82.6,76.0,76.0,73.4,70.0,92,75,50,29.89,29.73,2,0,0,0.06
2014-9-18,90.7,78.3,72.7,75.0,72.5,71.0,96,84,53,29.80,29.70,5,0,0,2.87
2014-9-19,85.5,78.5,74.7,78.0,74.5,71.0,100,88,68,29.82,29.75,0,0,0,0.24
2014-9-20,92.5,81.6,75.6,74.0,72.5,70.0,92,75,50,29.88,29.80,0,0,0,0.01
2014-9-21,93.4,82.0,73.9,74.0,70.2,65.0,95,70,42,29.97,29.87,0,0,0,0.00
2014-9-22,94.3,81.2,71.1,70.0,68.2,66.0,90,67,41,30.04,29.93,0,0,0,0.00
2014-9-23,77.9,72.5,68.4,69.0,63.2,59.0,77,72,68,30.02,29.99,0,0,0,0.00